createdAt,value
2022-09-06T00:00:08.641Z,2.20
2022-09-06T00:01:17.245Z,1.77
2022-09-06T00:02:20.796Z,1.80
2022-09-06T00:03:24.157Z,1.95
2022-09-06T00:04:27.380Z,2.08
2022-09-06T00:05:31.984Z,1.92
2022-09-06T00:06:39.234Z,1.90
2022-09-06T00:07:42.467Z,2.30
2022-09-06T00:08:46.659Z,2.10
2022-09-06T00:09:49.834Z,2.03
2022-09-06T00:11:01.300Z,2.03
2022-09-06T00:12:04.562Z,2.00
2022-09-06T00:13:08.996Z,2.25
2022-09-06T00:14:11.993Z,2.10
2022-09-06T00:15:14.958Z,2.00
2022-09-06T00:16:21.194Z,1.92
2022-09-06T00:17:24.202Z,2.05
2022-09-06T00:18:27.377Z,1.92
2022-09-06T00:19:30.389Z,1.95
2022-09-06T00:20:34.946Z,1.80
2022-09-06T00:21:38.083Z,2.05
2022-09-06T00:22:41.373Z,2.28
2022-09-06T00:23:44.536Z,2.03
2022-09-06T00:24:47.663Z,2.35
2022-09-06T00:25:50.596Z,2.10
2022-09-06T00:26:53.551Z,1.95
2022-09-06T00:28:05.630Z,2.00
2022-09-06T00:29:08.705Z,1.90
2022-09-06T00:30:12.210Z,2.20
2022-09-06T00:31:24.119Z,2.05
2022-09-06T00:32:27.688Z,2.15
2022-09-06T00:33:30.690Z,1.95
2022-09-06T00:34:33.804Z,2.10
2022-09-06T00:35:36.828Z,1.90
2022-09-06T00:36:39.876Z,2.15
2022-09-06T00:37:42.858Z,1.90
2022-09-06T00:38:50.339Z,2.00
2022-09-06T00:39:53.197Z,2.35
2022-09-06T00:40:56.189Z,1.90
2022-09-06T00:41:59.105Z,2.00
2022-09-06T00:43:02.175Z,2.20
2022-09-06T00:44:09.106Z,2.22
2022-09-06T00:45:12.905Z,2.00
2022-09-06T00:46:21.251Z,1.77
2022-09-06T00:47:24.298Z,1.80
2022-09-06T00:48:31.096Z,2.00
2022-09-06T00:49:42.179Z,1.98
2022-09-06T00:50:49.275Z,2.00
2022-09-06T00:51:56.464Z,2.12
2022-09-06T00:52:59.614Z,2.10
2022-09-06T00:54:05.613Z,2.10
2022-09-06T00:55:10.451Z,2.30
2022-09-06T00:56:13.986Z,1.87
2022-09-06T00:57:18.676Z,2.00
2022-09-06T00:58:22.771Z,2.03
2022-09-06T00:59:29.845Z,2.12
2022-09-06T01:00:32.864Z,2.00
2022-09-06T01:01:36.046Z,1.90
2022-09-06T01:02:39.274Z,2.00
2022-09-06T01:03:43.245Z,2.08
2022-09-06T01:04:48.440Z,1.83
2022-09-06T01:06:24.999Z,1.92
2022-09-06T01:07:38.693Z,2.03
2022-09-06T01:09:06.913Z,2.00
2022-09-06T01:10:43.637Z,2.00
2022-09-06T01:12:07.580Z,2.12
2022-09-06T01:13:28.423Z,2.28
2022-09-06T01:14:52.740Z,2.30
2022-09-06T01:16:10.534Z,2.05
2022-09-06T01:17:28.813Z,2.17
2022-09-06T01:18:50.546Z,2.00
2022-09-06T01:20:18.244Z,1.80
2022-09-06T01:21:39.616Z,2.28
2022-09-06T01:23:25.860Z,2.10
2022-09-06T01:24:47.028Z,2.10
2022-09-06T01:26:23.901Z,2.47
2022-09-06T01:27:57.971Z,2.08
2022-09-06T01:29:16.633Z,1.95
2022-09-06T01:30:20.943Z,2.30
2022-09-06T01:31:42.238Z,1.98
2022-09-06T01:32:56.882Z,2.33
2022-09-06T01:34:05.971Z,2.25
2022-09-06T01:35:32.116Z,2.12
2022-09-06T01:37:10.345Z,2.42
2022-09-06T01:38:15.339Z,2.28
2022-09-06T01:39:30.481Z,2.33
2022-09-06T01:40:36.753Z,2.25
2022-09-06T01:41:39.863Z,2.30
2022-09-06T01:42:48.314Z,2.08
2022-09-06T01:43:53.674Z,2.42
2022-09-06T01:45:25.577Z,2.53
2022-09-06T01:47:04.996Z,2.37
2022-09-06T01:48:39.885Z,2.72
2022-09-06T01:50:04.206Z,2.65
2022-09-06T01:51:15.377Z,2.35
2022-09-06T01:52:21.279Z,2.80
2022-09-06T01:53:42.980Z,3.05
2022-09-06T01:55:02.971Z,2.53
2022-09-06T01:56:16.745Z,2.65
2022-09-06T01:57:38.592Z,2.45
2022-09-06T01:59:05.796Z,2.33
2022-09-06T02:00:12.440Z,2.25
2022-09-06T02:01:36.291Z,2.75
2022-09-06T02:03:21.225Z,2.30
2022-09-06T02:04:30.299Z,2.95
2022-09-06T02:05:41.916Z,2.60
2022-09-06T02:08:17.476Z,2.10
2022-09-06T02:09:26.250Z,3.00
2022-09-06T02:10:41.041Z,2.53
2022-09-06T02:11:50.231Z,2.55
2022-09-06T02:12:57.707Z,2.10
2022-09-06T02:14:10.203Z,2.45
2022-09-06T02:15:30.153Z,2.62
2022-09-06T02:16:38.288Z,2.50
2022-09-06T02:17:49.145Z,2.37
2022-09-06T02:19:07.914Z,2.33
2022-09-06T02:20:16.793Z,2.37
2022-09-06T02:21:27.120Z,2.40
2022-09-06T02:22:33.777Z,1.98
2022-09-06T02:23:40.731Z,2.47
2022-09-06T02:24:47.788Z,2.58
2022-09-06T02:26:07.521Z,2.90
2022-09-06T02:27:12.266Z,2.37
2022-09-06T02:28:17.025Z,2.60
2022-09-06T02:29:20.335Z,2.22
2022-09-06T02:30:27.439Z,2.53
2022-09-06T02:31:37.081Z,2.50
2022-09-06T02:32:51.755Z,2.22
2022-09-06T02:33:56.815Z,2.12
2022-09-06T02:35:00.236Z,2.17
2022-09-06T02:36:09.036Z,2.30
2022-09-06T02:37:13.291Z,2.40
2022-09-06T02:38:17.862Z,2.62
2022-09-06T02:39:20.922Z,2.58
2022-09-06T02:40:24.573Z,2.15
2022-09-06T02:41:29.601Z,2.62
2022-09-06T02:42:36.281Z,2.47
2022-09-06T02:43:40.449Z,2.30
2022-09-06T02:44:43.678Z,2.25
2022-09-06T02:45:46.701Z,2.40
2022-09-06T02:46:51.814Z,2.47
2022-09-06T02:47:58.007Z,2.70
2022-09-06T02:49:00.963Z,2.37
2022-09-06T02:50:04.135Z,2.62
2022-09-06T02:51:09.038Z,2.30
2022-09-06T02:52:12.293Z,2.17
2022-09-06T02:53:16.250Z,2.37
2022-09-06T02:54:19.161Z,2.50
2022-09-06T02:55:22.020Z,2.28
2022-09-06T02:56:25.275Z,2.40
2022-09-06T02:57:28.216Z,2.30
2022-09-06T02:58:31.376Z,2.25
2022-09-06T02:59:34.178Z,2.50
2022-09-06T03:00:37.795Z,2.25
2022-09-06T03:01:40.997Z,2.65
2022-09-06T03:02:44.100Z,2.60
2022-09-06T03:03:47.168Z,2.60
2022-09-06T03:04:50.234Z,2.50
2022-09-06T03:05:54.495Z,2.37
2022-09-06T03:06:57.630Z,2.45
2022-09-06T03:08:00.800Z,2.50
2022-09-06T03:09:04.097Z,2.60
2022-09-06T03:10:07.559Z,2.65
2022-09-06T03:11:10.662Z,2.83
2022-09-06T03:12:13.732Z,2.53
2022-09-06T03:13:16.838Z,3.00
2022-09-06T03:14:20.308Z,2.42
2022-09-06T03:15:23.325Z,2.90
2022-09-06T03:16:26.490Z,2.83
2022-09-06T03:17:29.452Z,2.55
2022-09-06T03:18:32.938Z,2.50
2022-09-06T03:19:36.351Z,2.60
2022-09-06T03:20:39.314Z,2.30
2022-09-06T03:21:42.224Z,2.50
2022-09-06T03:22:48.390Z,2.67
2022-09-06T03:23:51.394Z,2.70
2022-09-06T03:24:55.253Z,2.90
2022-09-06T03:25:58.093Z,2.60
2022-09-06T03:27:00.987Z,2.75
2022-09-06T03:28:04.007Z,2.60
2022-09-06T03:29:06.902Z,2.40
2022-09-06T03:30:10.544Z,2.95
2022-09-06T03:31:13.703Z,2.70
2022-09-06T03:32:16.762Z,2.72
2022-09-06T03:33:21.014Z,2.60
2022-09-06T03:34:24.046Z,2.85
2022-09-06T03:35:26.917Z,2.80
2022-09-06T03:36:30.028Z,2.47
2022-09-06T03:37:32.920Z,2.83
2022-09-06T03:38:36.022Z,3.08
2022-09-06T03:39:39.126Z,2.58
2022-09-06T03:40:45.481Z,2.67
2022-09-06T03:41:48.473Z,2.70
2022-09-06T03:42:51.398Z,3.00
2022-09-06T03:43:54.328Z,2.83
2022-09-06T03:44:57.161Z,2.70
2022-09-06T03:46:00.129Z,2.72
2022-09-06T03:47:04.330Z,3.17
2022-09-06T03:48:07.407Z,2.80
2022-09-06T03:49:10.663Z,2.75
2022-09-06T03:50:13.617Z,2.67
2022-09-06T03:51:16.526Z,2.90
2022-09-06T03:52:19.599Z,2.72
2022-09-06T03:53:24.356Z,3.00
2022-09-06T03:54:28.884Z,2.97
2022-09-06T03:55:31.878Z,2.87
2022-09-06T03:56:34.787Z,2.70
2022-09-06T03:57:38.029Z,3.22
2022-09-06T03:58:41.073Z,2.85
2022-09-06T03:59:44.132Z,2.85
2022-09-06T04:00:47.324Z,2.80
2022-09-06T04:01:50.686Z,2.92
2022-09-06T04:02:58.561Z,2.60
2022-09-06T04:04:03.981Z,2.67
2022-09-06T04:05:07.820Z,2.55
2022-09-06T04:06:11.046Z,2.87
2022-09-06T04:07:13.950Z,2.72
2022-09-06T04:08:17.096Z,2.47
2022-09-06T04:09:20.480Z,3.00
2022-09-06T04:10:23.703Z,2.92
2022-09-06T04:11:26.692Z,2.95
2022-09-06T04:12:29.661Z,2.62
2022-09-06T04:13:34.021Z,2.70
2022-09-06T04:14:37.099Z,2.70
2022-09-06T04:15:39.932Z,2.90
2022-09-06T04:16:42.973Z,2.60
2022-09-06T04:17:46.741Z,3.03
2022-09-06T04:18:49.783Z,2.90
2022-09-06T04:19:52.702Z,2.70
2022-09-06T04:20:56.585Z,2.62
2022-09-06T04:21:59.477Z,2.90
2022-09-06T04:23:02.317Z,2.90
2022-09-06T04:24:05.362Z,2.60
2022-09-06T04:25:08.930Z,2.90
2022-09-06T04:26:12.295Z,2.70
2022-09-06T04:27:15.266Z,2.92
2022-09-06T04:28:21.333Z,2.75
2022-09-06T04:29:24.989Z,2.90
2022-09-06T04:30:27.886Z,2.72
2022-09-06T04:31:34.197Z,2.80
2022-09-06T04:32:37.116Z,2.50
2022-09-06T04:33:40.488Z,2.87
2022-09-06T04:34:43.377Z,2.62
2022-09-06T04:35:50.518Z,3.12
2022-09-06T04:36:53.364Z,3.42
2022-09-06T04:37:56.512Z,2.87
2022-09-06T04:38:59.708Z,2.35
2022-09-06T04:40:03.138Z,2.90
2022-09-06T04:41:06.927Z,2.75
2022-09-06T04:42:09.875Z,2.70
2022-09-06T04:43:12.916Z,2.80
2022-09-06T04:44:15.839Z,2.70
2022-09-06T04:45:18.821Z,2.58
2022-09-06T04:46:25.346Z,2.80
2022-09-06T04:47:28.470Z,2.80
2022-09-06T04:48:31.409Z,2.30
2022-09-06T04:49:34.483Z,2.50
2022-09-06T04:50:41.159Z,2.53
2022-09-06T04:51:44.048Z,3.00
2022-09-06T04:52:46.954Z,2.92
2022-09-06T04:53:50.282Z,2.90
2022-09-06T04:54:53.311Z,2.72
2022-09-06T04:55:58.366Z,2.80
2022-09-06T04:57:01.233Z,2.70
2022-09-06T04:58:05.318Z,2.70
2022-09-06T04:59:08.212Z,2.53
2022-09-06T05:00:11.432Z,2.65
2022-09-06T05:01:15.184Z,2.58
2022-09-06T05:02:18.254Z,2.92
2022-09-06T05:03:21.194Z,2.53
2022-09-06T05:04:24.252Z,2.40
2022-09-06T05:05:27.565Z,2.72
2022-09-06T05:06:30.954Z,2.60
2022-09-06T05:07:34.977Z,2.97
2022-09-06T05:08:42.003Z,2.83
2022-09-06T05:09:45.181Z,2.65
2022-09-06T05:10:52.726Z,2.92
2022-09-06T05:11:56.343Z,2.85
2022-09-06T05:12:59.356Z,2.55
2022-09-06T05:14:02.379Z,2.65
2022-09-06T05:15:05.592Z,2.90
2022-09-06T05:16:10.348Z,2.75
2022-09-06T05:17:17.327Z,2.70
2022-09-06T05:18:20.349Z,2.60
2022-09-06T05:19:27.407Z,2.80
2022-09-06T05:20:30.843Z,2.70
2022-09-06T05:21:33.885Z,2.67
2022-09-06T05:22:37.625Z,3.00
2022-09-06T05:23:40.533Z,2.72
2022-09-06T05:24:43.562Z,2.87
2022-09-06T05:25:46.631Z,2.90
2022-09-06T05:26:49.502Z,2.75
2022-09-06T05:27:52.352Z,2.83
2022-09-06T05:28:55.225Z,2.58
2022-09-06T05:29:58.132Z,2.83
2022-09-06T05:31:12.298Z,2.70
2022-09-06T05:32:15.291Z,2.70
2022-09-06T05:33:23.178Z,2.53
2022-09-06T05:34:26.186Z,2.85
2022-09-06T05:35:29.184Z,2.53
2022-09-06T05:36:32.531Z,2.83
2022-09-06T05:37:35.511Z,3.20
2022-09-06T05:38:38.508Z,2.47
2022-09-06T05:39:41.541Z,2.87
2022-09-06T05:40:44.649Z,2.80
2022-09-06T05:41:48.316Z,2.50
2022-09-06T05:42:51.260Z,2.62
2022-09-06T05:43:58.182Z,2.42
2022-09-06T05:45:02.153Z,2.92
2022-09-06T05:46:06.282Z,2.58
2022-09-06T05:47:09.732Z,2.72
2022-09-06T05:48:12.687Z,2.47
2022-09-06T05:49:15.655Z,2.70
2022-09-06T05:50:18.585Z,2.47
2022-09-06T05:51:22.011Z,3.30
2022-09-06T05:52:24.979Z,2.92
2022-09-06T05:53:27.940Z,3.20
2022-09-06T05:54:30.819Z,2.72
2022-09-06T05:55:40.062Z,2.72
2022-09-06T05:56:45.772Z,2.70
2022-09-06T05:57:48.823Z,2.72
2022-09-06T05:58:51.947Z,2.75
2022-09-06T05:59:54.835Z,3.15
2022-09-06T06:01:19.071Z,2.70
2022-09-06T06:02:23.141Z,2.80
2022-09-06T06:03:26.067Z,2.60
2022-09-06T06:04:28.866Z,2.78
2022-09-06T06:05:31.847Z,2.87
2022-09-06T06:06:35.094Z,2.70
2022-09-06T06:07:39.320Z,2.78
2022-09-06T06:08:42.179Z,2.65
2022-09-06T06:09:48.187Z,2.87
2022-09-06T06:10:51.038Z,2.80
2022-09-06T06:11:53.991Z,2.90
2022-09-06T06:12:58.122Z,3.00
2022-09-06T06:14:00.928Z,3.00
2022-09-06T06:15:06.213Z,3.10
2022-09-06T06:16:13.914Z,3.10
2022-09-06T06:17:17.026Z,2.87
2022-09-06T06:18:20.598Z,2.90
2022-09-06T06:19:23.600Z,3.00
2022-09-06T06:20:26.479Z,3.00
2022-09-06T06:21:32.030Z,2.90
2022-09-06T06:22:34.862Z,2.83
2022-09-06T06:23:37.908Z,3.03
2022-09-06T06:24:40.785Z,3.20
2022-09-06T06:25:43.880Z,3.20
2022-09-06T06:26:47.208Z,3.67
2022-09-06T06:27:50.240Z,3.28
2022-09-06T06:28:53.814Z,3.00
2022-09-06T06:29:56.830Z,3.12
2022-09-06T06:30:59.679Z,3.35
2022-09-06T06:32:02.988Z,3.03
2022-09-06T06:33:05.974Z,2.80
2022-09-06T06:34:09.213Z,3.05
2022-09-06T06:35:12.437Z,3.60
2022-09-06T06:36:15.429Z,3.10
2022-09-06T06:37:18.886Z,3.03
2022-09-06T06:38:21.877Z,2.58
2022-09-06T06:39:24.950Z,3.03
2022-09-06T06:40:27.929Z,3.15
2022-09-06T06:41:33.190Z,2.90
2022-09-06T06:42:36.063Z,2.97
2022-09-06T06:43:39.412Z,3.40
2022-09-06T06:44:42.407Z,3.25
2022-09-06T06:45:50.256Z,3.20
2022-09-06T06:46:53.308Z,2.83
2022-09-06T06:47:56.166Z,3.00
2022-09-06T06:48:59.278Z,3.17
2022-09-06T06:50:02.321Z,3.75
2022-09-06T06:51:06.925Z,3.15
2022-09-06T06:52:09.835Z,3.20
2022-09-06T06:53:12.922Z,3.30
2022-09-06T06:54:15.876Z,3.05
2022-09-06T06:55:18.877Z,3.08
2022-09-06T06:56:26.487Z,3.03
2022-09-06T06:57:29.606Z,3.28
2022-09-06T06:58:33.693Z,2.80
2022-09-06T06:59:36.757Z,3.30
2022-09-06T07:00:40.848Z,3.00
2022-09-06T07:01:43.918Z,3.28
2022-09-06T07:02:46.944Z,2.80
2022-09-06T07:03:50.454Z,3.17
2022-09-06T07:04:53.442Z,3.55
2022-09-06T07:06:12.424Z,3.37
2022-09-06T07:07:33.495Z,3.10
2022-09-06T07:08:38.795Z,3.40
2022-09-06T07:11:06.552Z,3.25
2022-09-06T07:12:09.368Z,3.55
2022-09-06T07:13:12.271Z,3.50
2022-09-06T07:14:18.850Z,3.60
2022-09-06T07:15:21.869Z,3.20
2022-09-06T07:16:25.450Z,3.05
2022-09-06T07:17:28.666Z,2.95
2022-09-06T07:18:31.560Z,3.70
2022-09-06T07:22:20.468Z,3.20
2022-09-06T07:24:48.443Z,2.92
2022-09-06T07:25:51.573Z,3.58
2022-09-06T07:28:19.896Z,3.17
2022-09-06T07:29:22.800Z,3.67
2022-09-06T07:30:26.103Z,3.42
2022-09-06T07:32:53.203Z,3.17
2022-09-06T07:33:56.386Z,3.42
2022-09-06T07:34:59.467Z,3.60
2022-09-06T07:36:03.679Z,3.53
2022-09-06T07:37:06.703Z,2.80
2022-09-06T07:38:09.671Z,3.62
2022-09-06T07:39:12.666Z,3.70
2022-09-06T07:40:15.530Z,3.37
2022-09-06T07:41:19.677Z,3.30
2022-09-06T07:42:22.858Z,3.45
2022-09-06T07:43:27.181Z,3.95
2022-09-06T07:44:31.119Z,3.20
2022-09-06T07:45:34.794Z,3.40
2022-09-06T07:46:38.171Z,3.50
2022-09-06T07:47:57.510Z,3.37
2022-09-06T07:49:00.815Z,2.97
2022-09-06T07:51:29.845Z,3.53
2022-09-06T07:54:13.224Z,3.55
2022-09-06T07:55:19.421Z,3.67
2022-09-06T07:56:23.169Z,3.60
2022-09-06T07:57:26.248Z,4.10
2022-09-06T07:58:33.895Z,3.30
2022-09-06T07:59:40.050Z,3.58
2022-09-06T08:00:45.821Z,3.37
2022-09-06T08:01:49.793Z,3.90
2022-09-06T08:02:52.626Z,3.60
2022-09-06T08:03:56.155Z,4.00
2022-09-06T08:04:59.168Z,3.62
2022-09-06T08:06:10.035Z,4.28
2022-09-06T08:09:59.756Z,3.95
2022-09-06T08:11:03.307Z,4.25
2022-09-06T08:12:10.034Z,3.65
2022-09-06T08:13:13.121Z,4.03
2022-09-06T08:14:16.350Z,3.97
2022-09-06T08:15:19.459Z,4.03
2022-09-06T08:16:24.701Z,4.00
2022-09-06T08:17:27.927Z,4.12
2022-09-06T08:18:31.024Z,3.87
2022-09-06T08:19:34.893Z,4.10
2022-09-06T08:20:37.812Z,4.00
2022-09-06T08:21:41.565Z,3.80
2022-09-06T08:22:44.627Z,4.93
2022-09-06T08:23:49.757Z,4.07
2022-09-06T08:24:52.706Z,4.72
2022-09-06T08:26:03.504Z,3.87
2022-09-06T08:27:08.158Z,4.35
2022-09-06T08:28:11.258Z,4.03
2022-09-06T08:29:14.689Z,4.15
2022-09-06T08:30:17.731Z,3.92
2022-09-06T08:31:21.107Z,4.12
2022-09-06T08:32:25.291Z,4.45
2022-09-06T08:33:28.465Z,3.97
2022-09-06T08:34:31.515Z,3.80
2022-09-06T08:35:35.408Z,3.97
2022-09-06T08:36:40.122Z,3.80
2022-09-06T08:37:46.284Z,4.12
2022-09-06T08:38:49.405Z,4.03
2022-09-06T08:39:52.507Z,3.80
2022-09-06T08:41:07.847Z,4.05
2022-09-06T08:42:12.637Z,3.85
2022-09-06T08:43:20.387Z,4.18
2022-09-06T08:45:57.730Z,3.42
2022-09-06T08:47:04.678Z,3.75
2022-09-06T08:48:08.077Z,4.00
2022-09-06T08:49:11.539Z,3.65
2022-09-06T08:50:14.856Z,3.92
2022-09-06T08:51:50.095Z,3.87
2022-09-06T08:53:24.815Z,4.25
2022-09-06T08:54:54.365Z,3.53
2022-09-06T08:56:13.722Z,3.83
2022-09-06T08:57:44.317Z,3.90
2022-09-06T08:59:12.226Z,3.92
2022-09-06T09:00:15.576Z,4.18
2022-09-06T09:01:25.527Z,3.60
2022-09-06T09:02:36.005Z,4.07
2022-09-06T09:03:42.836Z,3.87
2022-09-06T09:04:56.368Z,4.07
2022-09-06T09:06:00.347Z,4.12
2022-09-06T09:07:30.283Z,3.75
2022-09-06T09:08:59.473Z,3.72
2022-09-06T09:10:09.264Z,3.67
2022-09-06T09:11:31.658Z,3.58
2022-09-06T09:12:42.481Z,3.90
2022-09-06T09:13:55.401Z,3.97
2022-09-06T09:15:09.594Z,3.55
2022-09-06T09:16:13.014Z,3.65
2022-09-06T09:17:25.836Z,3.90
2022-09-06T09:18:33.894Z,3.85
2022-09-06T09:19:39.799Z,3.80
2022-09-06T09:20:42.722Z,3.72
2022-09-06T09:21:45.701Z,3.83
2022-09-06T09:22:49.011Z,3.42
2022-09-06T09:23:55.752Z,3.95
2022-09-06T09:25:00.561Z,3.60
2022-09-06T09:26:11.448Z,3.97
2022-09-06T09:27:18.886Z,4.15
2022-09-06T09:28:24.415Z,3.58
2022-09-06T09:29:30.292Z,3.80
2022-09-06T09:30:57.848Z,3.87
2022-09-06T09:32:00.827Z,3.67
2022-09-06T09:33:27.775Z,3.83
2022-09-06T09:34:33.978Z,4.30
2022-09-06T09:35:42.522Z,4.32
2022-09-06T09:38:30.145Z,3.85
2022-09-06T09:39:42.605Z,4.62
2022-09-06T09:41:05.723Z,4.30
2022-09-06T09:42:10.249Z,4.05
2022-09-06T09:43:20.466Z,4.32
2022-09-06T09:44:28.401Z,4.05
2022-09-06T09:45:32.103Z,3.90
2022-09-06T09:46:39.361Z,3.83
2022-09-06T09:47:45.481Z,4.37
2022-09-06T09:49:11.948Z,3.97
2022-09-06T09:50:31.272Z,3.70
2022-09-06T09:51:43.851Z,3.70
2022-09-06T09:52:46.855Z,3.97
2022-09-06T09:53:52.225Z,3.55
2022-09-06T09:55:11.062Z,3.60
2022-09-06T09:56:16.031Z,3.90
2022-09-06T09:57:19.596Z,3.47
2022-09-06T09:58:35.900Z,3.37
2022-09-06T09:59:48.353Z,3.50
2022-09-06T10:01:17.355Z,3.72
2022-09-06T10:02:36.120Z,3.85
2022-09-06T10:05:05.339Z,3.85
2022-09-06T10:07:42.821Z,3.53
2022-09-06T10:08:45.842Z,3.60
2022-09-06T10:10:16.519Z,3.58
2022-09-06T10:11:57.361Z,3.62
2022-09-06T10:13:07.792Z,3.70
2022-09-06T10:14:41.378Z,3.47
2022-09-06T10:15:44.279Z,4.15
2022-09-06T10:16:47.490Z,3.58
2022-09-06T10:17:53.114Z,3.70
2022-09-06T10:18:56.226Z,3.90
2022-09-06T10:20:11.768Z,3.55
2022-09-06T10:21:19.441Z,3.40
2022-09-06T10:22:33.166Z,3.30
2022-09-06T10:25:37.769Z,3.62
2022-09-06T10:26:53.555Z,3.65
2022-09-06T10:28:29.396Z,3.40
2022-09-06T10:30:02.150Z,3.17
2022-09-06T10:31:30.372Z,3.33
2022-09-06T10:32:52.334Z,3.17
2022-09-06T10:34:07.327Z,3.55
2022-09-06T10:35:15.280Z,3.30
2022-09-06T10:36:25.818Z,3.30
2022-09-06T10:37:56.142Z,3.40
2022-09-06T10:39:11.043Z,3.12
2022-09-06T10:40:28.244Z,3.28
2022-09-06T10:41:58.402Z,3.40
2022-09-06T10:43:03.838Z,2.92
2022-09-06T10:44:39.616Z,3.42
2022-09-06T10:45:47.513Z,3.30
2022-09-06T10:46:57.181Z,3.55
2022-09-06T10:48:37.224Z,3.10
2022-09-06T10:49:51.307Z,3.10
2022-09-06T10:51:05.991Z,3.20
2022-09-06T10:52:15.810Z,2.87
2022-09-06T10:53:40.115Z,3.17
2022-09-06T10:54:47.233Z,3.35
2022-09-06T10:56:04.401Z,3.65
2022-09-06T11:00:42.781Z,2.90
2022-09-06T11:02:10.002Z,3.00
2022-09-06T11:06:36.181Z,2.75
2022-09-06T11:09:20.796Z,2.80
2022-09-06T11:10:35.348Z,2.70
2022-09-06T11:12:04.256Z,3.08
2022-09-06T11:13:11.607Z,3.10
2022-09-06T11:14:15.887Z,3.10
2022-09-06T11:15:20.641Z,3.30
2022-09-06T11:16:42.329Z,3.25
2022-09-06T11:17:53.718Z,2.95
2022-09-06T11:19:09.031Z,3.00
2022-09-06T11:20:33.231Z,3.05
2022-09-06T11:21:45.408Z,3.37
2022-09-06T11:23:26.346Z,3.15
2022-09-06T11:25:06.212Z,2.58
2022-09-06T11:26:21.075Z,2.87
2022-09-06T11:27:41.866Z,2.65
2022-09-06T11:28:49.627Z,2.77
2022-09-06T11:29:57.302Z,2.60
2022-09-06T11:31:03.026Z,2.80
2022-09-06T11:32:37.981Z,3.55
2022-09-06T11:33:41.305Z,2.90
2022-09-06T11:34:54.624Z,3.00
2022-09-06T11:36:49.917Z,2.90
2022-09-06T11:38:24.949Z,2.83
2022-09-06T11:41:40.265Z,3.15
2022-09-06T11:42:45.986Z,2.90
2022-09-06T11:43:51.782Z,2.65
2022-09-06T11:45:16.847Z,2.87
2022-09-06T11:46:52.605Z,2.90
2022-09-06T11:49:32.293Z,2.40
2022-09-06T11:50:54.159Z,2.20
2022-09-06T11:51:58.735Z,2.17
2022-09-06T11:53:18.708Z,2.50
2022-09-06T11:54:24.845Z,2.12
2022-09-06T11:55:54.253Z,2.72
2022-09-06T11:57:13.695Z,2.20
2022-09-06T11:58:16.618Z,2.03
2022-09-06T11:59:19.454Z,2.05
2022-09-06T12:00:24.559Z,2.00
2022-09-06T12:01:27.325Z,2.85
2022-09-06T12:02:35.594Z,2.40
2022-09-06T12:04:10.017Z,2.10
2022-09-06T12:05:21.032Z,2.10
2022-09-06T12:06:27.848Z,2.05
2022-09-06T12:07:32.654Z,2.03
2022-09-06T12:08:36.028Z,2.08
2022-09-06T12:09:46.459Z,2.00
2022-09-06T12:10:51.184Z,2.03
2022-09-06T12:11:54.503Z,2.12
2022-09-06T12:12:58.075Z,2.05
2022-09-06T12:14:06.111Z,1.87
2022-09-06T12:15:32.152Z,2.42
2022-09-06T12:17:00.723Z,2.20
2022-09-06T12:18:04.193Z,2.33
2022-09-06T12:19:08.107Z,2.55
2022-09-06T12:20:11.496Z,2.08
2022-09-06T12:21:34.562Z,2.05
2022-09-06T12:22:37.625Z,2.28
2022-09-06T12:23:41.454Z,2.12
2022-09-06T12:24:47.333Z,2.08
2022-09-06T12:25:55.020Z,1.90
2022-09-06T12:27:13.335Z,1.77
2022-09-06T12:28:35.436Z,1.85
2022-09-06T12:29:39.410Z,1.92
2022-09-06T12:30:48.318Z,2.03
2022-09-06T12:31:57.396Z,2.22
2022-09-06T12:33:02.746Z,2.00
2022-09-06T12:34:27.505Z,1.90
2022-09-06T12:37:08.332Z,2.30
2022-09-06T12:38:17.395Z,2.08
2022-09-06T12:39:22.074Z,2.05
2022-09-06T12:40:27.573Z,2.22
2022-09-06T12:41:39.352Z,2.25
2022-09-06T12:42:48.296Z,2.53
2022-09-06T12:43:51.303Z,1.92
2022-09-06T12:44:55.855Z,2.40
2022-09-06T12:46:00.156Z,2.28
2022-09-06T12:47:25.852Z,2.12
2022-09-06T12:48:31.910Z,2.00
2022-09-06T12:49:36.407Z,1.90
2022-09-06T12:50:40.803Z,2.20
2022-09-06T12:51:44.075Z,2.28
2022-09-06T12:52:56.643Z,2.40
2022-09-06T12:54:04.331Z,2.83
2022-09-06T12:55:16.824Z,2.55
2022-09-06T12:56:22.489Z,2.35
2022-09-06T12:57:30.006Z,2.28
2022-09-06T12:58:33.882Z,2.50
2022-09-06T12:59:36.977Z,2.37
2022-09-06T13:00:52.981Z,2.22
2022-09-06T13:02:07.282Z,2.00
2022-09-06T13:03:35.266Z,2.05
2022-09-06T13:04:50.169Z,2.30
2022-09-06T13:05:55.725Z,2.40
2022-09-06T13:07:01.226Z,2.42
2022-09-06T13:08:04.762Z,2.40
2022-09-06T13:09:11.892Z,2.60
2022-09-06T13:10:18.269Z,2.33
2022-09-06T13:11:28.735Z,2.33
2022-09-06T13:12:38.271Z,2.10
2022-09-06T13:13:55.319Z,2.20
2022-09-06T13:15:04.988Z,2.53
2022-09-06T13:16:08.441Z,2.10
2022-09-06T13:17:24.670Z,2.35
2022-09-06T13:18:39.952Z,2.53
2022-09-06T13:19:43.298Z,2.40
2022-09-06T13:20:46.554Z,2.37
2022-09-06T13:21:52.349Z,2.50
2022-09-06T13:23:09.464Z,2.37
2022-09-06T13:24:35.051Z,2.65
2022-09-06T13:25:49.995Z,2.45
2022-09-06T13:26:53.579Z,2.50
2022-09-06T13:27:58.562Z,2.65
2022-09-06T13:29:24.813Z,2.60
2022-09-06T13:30:42.514Z,2.17
2022-09-06T13:31:48.439Z,2.25
2022-09-06T13:32:51.489Z,2.37
2022-09-06T13:34:00.474Z,2.37
2022-09-06T13:35:04.596Z,2.50
2022-09-06T13:36:27.147Z,2.40
2022-09-06T13:37:34.140Z,2.45
2022-09-06T13:38:42.910Z,2.60
2022-09-06T13:39:46.651Z,2.10
2022-09-06T13:42:31.452Z,2.70
2022-09-06T13:43:45.358Z,2.83
2022-09-06T13:44:48.359Z,2.67
2022-09-06T13:46:12.182Z,2.60
2022-09-06T13:47:15.541Z,2.58
2022-09-06T13:48:29.121Z,2.65
2022-09-06T13:49:34.105Z,2.85
2022-09-06T13:50:37.275Z,2.85
2022-09-06T13:51:43.510Z,2.87
2022-09-06T13:52:49.159Z,2.67
2022-09-06T13:53:52.302Z,3.15
2022-09-06T13:54:56.071Z,3.20
2022-09-06T13:55:59.436Z,3.05
2022-09-06T13:57:02.648Z,2.78
2022-09-06T13:58:06.388Z,2.62
2022-09-06T13:59:13.126Z,2.58
2022-09-06T14:00:17.462Z,2.28
2022-09-06T14:01:20.607Z,2.92
2022-09-06T14:02:25.310Z,2.45
2022-09-06T14:03:32.099Z,3.05
2022-09-06T14:04:36.497Z,2.87
2022-09-06T14:05:40.009Z,2.97
2022-09-06T14:06:43.113Z,2.80
2022-09-06T14:07:47.029Z,2.90
2022-09-06T14:09:06.453Z,2.70
2022-09-06T14:10:11.890Z,2.30
2022-09-06T14:11:15.382Z,3.33
2022-09-06T14:12:18.349Z,2.60
2022-09-06T14:13:25.328Z,2.60
2022-09-06T14:14:28.352Z,2.45
2022-09-06T14:15:35.094Z,2.80
2022-09-06T14:16:39.043Z,2.60
2022-09-06T14:17:42.245Z,2.60
2022-09-06T14:18:45.965Z,2.75
2022-09-06T14:19:50.535Z,2.70
2022-09-06T14:21:00.891Z,2.70
2022-09-06T14:22:05.225Z,2.17
2022-09-06T14:23:08.805Z,2.85
2022-09-06T14:24:11.695Z,2.70
2022-09-06T14:25:15.886Z,2.83
2022-09-06T14:26:21.322Z,2.87
2022-09-06T14:27:24.311Z,2.65
2022-09-06T14:28:28.329Z,2.67
2022-09-06T14:29:31.611Z,2.60
2022-09-06T14:30:34.578Z,3.15
2022-09-06T14:31:39.168Z,2.55
2022-09-06T14:32:42.126Z,3.08
2022-09-06T14:33:45.622Z,2.70
2022-09-06T14:34:50.072Z,2.80
2022-09-06T14:35:52.987Z,2.62
2022-09-06T14:36:56.211Z,2.90
2022-09-06T14:38:01.028Z,2.78
2022-09-06T14:39:05.262Z,2.80
2022-09-06T14:40:10.975Z,3.00
2022-09-06T14:41:15.468Z,2.90
2022-09-06T14:42:18.323Z,3.30
2022-09-06T14:43:21.193Z,2.85
2022-09-06T14:44:24.275Z,3.10
2022-09-06T14:45:27.217Z,2.83
2022-09-06T14:46:30.654Z,2.55
2022-09-06T14:47:34.885Z,2.62
2022-09-06T14:48:41.618Z,2.87
2022-09-06T14:49:45.335Z,2.92
2022-09-06T14:50:48.257Z,2.60
2022-09-06T14:51:52.864Z,2.80
2022-09-06T14:52:55.902Z,2.80
2022-09-06T14:54:05.876Z,3.10
2022-09-06T14:55:09.217Z,2.80
2022-09-06T14:56:13.267Z,2.83
2022-09-06T14:57:16.442Z,2.92
2022-09-06T14:58:19.408Z,2.75
2022-09-06T14:59:22.582Z,2.55
2022-09-06T15:00:25.450Z,2.90
2022-09-06T15:01:35.579Z,3.08
2022-09-06T15:02:41.132Z,3.25
2022-09-06T15:03:48.962Z,3.20
2022-09-06T15:04:51.987Z,2.80
2022-09-06T15:05:54.907Z,3.17
2022-09-06T15:06:57.876Z,2.90
2022-09-06T15:08:00.809Z,3.00
2022-09-06T15:09:04.688Z,3.15
2022-09-06T15:10:07.885Z,3.30
2022-09-06T15:11:12.108Z,3.20
2022-09-06T15:12:15.046Z,3.20
2022-09-06T15:13:17.859Z,3.20
2022-09-06T15:14:23.530Z,3.47
2022-09-06T15:15:26.391Z,3.10
2022-09-06T15:16:33.005Z,3.42
2022-09-06T15:17:36.943Z,3.28
2022-09-06T15:18:39.963Z,3.80
2022-09-06T15:19:42.916Z,3.28
2022-09-06T15:20:46.711Z,3.72
2022-09-06T15:21:52.990Z,3.45
2022-09-06T15:23:21.739Z,3.62
2022-09-06T15:24:19.671Z,3.65
2022-09-06T15:25:22.561Z,3.72
2022-09-06T15:26:26.596Z,4.47
2022-09-06T15:27:30.429Z,3.78
2022-09-06T15:28:37.985Z,3.70
2022-09-06T15:29:41.428Z,3.70
2022-09-06T15:30:44.429Z,3.75
2022-09-06T15:31:50.735Z,3.83
2022-09-06T15:32:53.842Z,4.00
2022-09-06T15:33:58.362Z,3.60
2022-09-06T15:35:04.487Z,3.60
2022-09-06T15:36:10.452Z,3.55
2022-09-06T15:37:13.515Z,3.67
2022-09-06T15:38:16.632Z,3.17
2022-09-06T15:39:19.768Z,3.75
2022-09-06T15:40:24.782Z,3.62
2022-09-06T15:41:33.175Z,3.30